Time;durP1;ratioP1;P1;durP2;ratioP2;P2;SDS_P1;SDS_P2;PMS_P1;PMS_P2;Temp;Humidity;BMP_temperature;BMP_pressure;BME280_temperature;BME280_humidity;BME280_pressure;Samples;Min_cycle;Max_cycle;Signal;HPM_P1;HPM_P2
2022/04/11 00:01:57;;;;;;;6.33;4.83;;;1.80;99.90;;;;;;5011419;28;20544;-72
2022/04/11 00:04:24;;;;;;;5.37;4.97;;;1.80;99.90;;;;;;5017449;28;20227;-72
2022/04/11 00:06:49;;;;;;;6.10;5.50;;;1.80;99.90;;;;;;5013692;28;20201;-71
2022/04/11 00:09:15;;;;;;;7.80;4.87;;;1.70;99.90;;;;;;5011361;28;20239;-71
2022/04/11 00:11:41;;;;;;;6.07;5.10;;;1.60;99.90;;;;;;5014258;28;20209;-71
2022/04/11 00:14:06;;;;;;;4.93;4.50;;;1.60;99.90;;;;;;5012367;28;20181;-71
2022/04/11 00:16:32;;;;;;;5.40;4.90;;;1.50;99.90;;;;;;5014777;28;20596;-72
2022/04/11 00:18:58;;;;;;;6.40;5.43;;;1.40;99.90;;;;;;5011769;28;20182;-71
2022/04/11 00:21:24;;;;;;;5.53;5.03;;;1.40;99.90;;;;;;5012858;28;20213;-71
2022/04/11 00:23:49;;;;;;;5.20;4.80;;;1.40;99.90;;;;;;5013805;28;20268;-73
2022/04/11 00:26:15;;;;;;;5.83;4.93;;;1.30;99.90;;;;;;5014225;28;20228;-72
2022/04/11 00:28:41;;;;;;;6.40;5.53;;;1.40;99.90;;;;;;5012427;28;20189;-72
2022/04/11 00:31:06;;;;;;;5.90;5.20;;;1.30;99.90;;;;;;5015019;28;20275;-73
2022/04/11 00:33:32;;;;;;;6.83;5.40;;;1.30;99.90;;;;;;5012529;28;20563;-72
2022/04/11 00:35:57;;;;;;;5.57;5.10;;;1.20;99.90;;;;;;5014394;28;20278;-72
2022/04/11 00:38:23;;;;;;;5.63;5.10;;;1.20;99.90;;;;;;5009334;28;20212;-73
2022/04/11 00:40:49;;;;;;;6.93;5.10;;;1.10;99.90;;;;;;5013830;28;20200;-71
2022/04/11 00:43:37;;;;;;;6.20;5.60;;;1.10;99.90;;;;;;5011922;28;20519;-71
2022/04/11 00:46:05;;;;;;;5.97;5.37;;;1.00;99.90;;;;;;5012252;28;20185;-71
2022/04/11 00:48:31;;;;;;;5.80;5.30;;;1.00;99.90;;;;;;5013208;28;20284;-71
2022/04/11 00:51:02;;;;;;;8.57;5.53;;;1.00;99.90;;;;;;5012740;28;20212;-71
2022/04/11 00:53:30;;;;;;;6.47;5.67;;;1.00;99.90;;;;;;5010972;28;20189;-72
2022/04/11 00:55:58;;;;;;;6.40;5.80;;;1.00;99.90;;;;;;5011500;28;20184;-72
2022/04/11 00:58:24;;;;;;;6.23;5.40;;;1.00;99.90;;;;;;5010358;28;20227;-72
2022/04/11 01:00:50;;;;;;;5.57;5.13;;;0.90;99.90;;;;;;5011097;28;20209;-71
2022/04/11 01:03:16;;;;;;;5.60;5.10;;;0.90;99.90;;;;;;5013227;28;20173;-72
2022/04/11 01:05:42;;;;;;;10.13;5.87;;;0.80;99.90;;;;;;5014487;28;20185;-72
2022/04/11 01:08:09;;;;;;;5.90;5.40;;;0.70;99.90;;;;;;5010299;28;20229;-72
2022/04/11 01:10:35;;;;;;;5.90;5.40;;;0.70;99.90;;;;;;5008180;28;20216;-72
2022/04/11 01:13:01;;;;;;;7.80;5.37;;;0.70;99.90;;;;;;5013705;28;20591;-73
2022/04/11 01:15:27;;;;;;;8.33;5.63;;;0.60;99.90;;;;;;5007783;28;20239;-72
2022/04/11 01:17:53;;;;;;;7.90;5.47;;;0.60;99.90;;;;;;5010820;28;20201;-73
2022/04/11 01:20:19;;;;;;;6.30;5.50;;;0.50;99.90;;;;;;5013344;28;20653;-72
2022/04/11 01:22:46;;;;;;;5.50;4.83;;;0.50;99.90;;;;;;5012381;28;20552;-73
2022/04/11 01:25:13;;;;;;;5.37;4.70;;;0.40;99.90;;;;;;5005140;28;20186;-72
2022/04/11 01:27:39;;;;;;;5.43;4.37;;;0.40;99.90;;;;;;5008622;28;20303;-71
2022/04/11 01:30:07;;;;;;;5.97;4.27;;;0.30;99.90;;;;;;5012988;28;20182;-71
2022/04/11 01:32:33;;;;;;;4.67;4.37;;;0.30;99.90;;;;;;5025853;28;20244;-72
2022/04/11 01:34:59;;;;;;;4.50;4.10;;;0.30;99.90;;;;;;5008198;28;20368;-72
2022/04/11 01:37:24;;;;;;;5.10;4.60;;;0.30;99.90;;;;;;5011504;28;20198;-72
2022/04/11 01:39:50;;;;;;;5.43;4.93;;;0.20;99.90;;;;;;5013780;28;20304;-72
2022/04/11 01:42:16;;;;;;;4.37;3.93;;;0.20;99.90;;;;;;5014553;28;20189;-72
2022/04/11 01:44:41;;;;;;;4.53;4.13;;;0.10;99.90;;;;;;5007147;28;20272;-73
2022/04/11 01:47:07;;;;;;;9.37;5.17;;;0.10;99.90;;;;;;5010384;28;20210;-73
2022/04/11 01:49:33;;;;;;;5.33;4.27;;;0.10;99.90;;;;;;5011465;28;20189;-72
2022/04/11 01:51:58;;;;;;;5.43;4.93;;;0.10;99.90;;;;;;5013123;28;20210;-72
2022/04/11 01:54:24;;;;;;;5.67;5.17;;;0.10;99.90;;;;;;5002728;28;20260;-72
2022/04/11 01:56:50;;;;;;;5.57;4.37;;;0.00;99.90;;;;;;5002540;28;20233;-72
2022/04/11 01:59:16;;;;;;;5.57;5.00;;;0.00;99.90;;;;;;5013044;28;20213;-72
2022/04/11 02:01:43;;;;;;;5.83;5.23;;;0.00;99.90;;;;;;5011748;28;20702;-72
2022/04/11 02:04:09;;;;;;;5.30;4.87;;;0.00;99.90;;;;;;5014091;28;20223;-72
2022/04/11 02:06:34;;;;;;;5.70;4.63;;;-0.10;99.90;;;;;;5010570;28;20213;-71
2022/04/11 02:09:00;;;;;;;5.43;4.97;;;-0.10;99.90;;;;;;5012509;28;20199;-72
2022/04/11 02:11:26;;;;;;;6.00;5.17;;;-0.10;99.90;;;;;;5007368;28;20212;-71
2022/04/11 02:13:51;;;;;;;5.80;5.30;;;-0.10;99.90;;;;;;5013395;28;20268;-73
2022/04/11 02:16:17;;;;;;;5.87;5.23;;;-0.10;99.90;;;;;;5011781;28;20181;-73
2022/04/11 02:18:43;;;;;;;6.00;5.40;;;-0.20;99.90;;;;;;5010197;28;20181;-72
2022/04/11 02:21:09;;;;;;;5.90;5.40;;;-0.10;99.90;;;;;;5011082;28;20587;-72
2022/04/11 02:23:35;;;;;;;5.40;4.90;;;-0.10;99.90;;;;;;5008346;28;20188;-72
2022/04/11 02:26:01;;;;;;;6.70;5.10;;;-0.10;99.90;;;;;;5005840;28;20599;-72
2022/04/11 02:28:26;;;;;;;5.30;4.70;;;-0.20;99.90;;;;;;5010868;28;20271;-72
2022/04/11 02:30:52;;;;;;;6.53;5.73;;;-0.20;99.90;;;;;;5005707;28;20201;-72
2022/04/11 02:33:18;;;;;;;7.13;5.20;;;-0.20;99.90;;;;;;5012113;28;20475;-72
2022/04/11 02:35:44;;;;;;;5.63;5.13;;;-0.20;99.90;;;;;;5002414;28;20268;-73
2022/04/11 02:38:10;;;;;;;5.73;5.23;;;-0.30;99.90;;;;;;5009370;28;20739;-73
2022/04/11 02:40:35;;;;;;;5.73;5.27;;;-0.20;99.90;;;;;;5010325;28;20189;-72
2022/04/11 02:43:01;;;;;;;5.77;5.27;;;-0.30;99.90;;;;;;5007628;28;20178;-73
2022/04/11 02:45:26;;;;;;;5.63;5.03;;;-0.30;99.90;;;;;;5010960;28;20181;-72
2022/04/11 02:47:52;;;;;;;5.47;4.97;;;-0.30;99.90;;;;;;5010621;28;20208;-72
2022/04/11 02:50:18;;;;;;;8.00;5.17;;;-0.30;99.90;;;;;;5011470;28;20189;-72
2022/04/11 02:52:44;;;;;;;8.30;4.63;;;-0.30;99.90;;;;;;5003492;28;20276;-72
2022/04/11 02:55:09;;;;;;;5.30;4.80;;;-0.30;99.90;;;;;;5006761;28;20606;-72
2022/04/11 02:57:38;;;;;;;6.03;5.47;;;-0.40;99.90;;;;;;5007724;28;20249;-72
2022/04/11 03:00:09;;;;;;;6.00;5.40;;;-0.40;99.90;;;;;;5010043;28;20205;-72
2022/04/11 03:02:35;;;;;;;9.10;5.40;;;-0.40;99.90;;;;;;5006446;28;20189;-73
2022/04/11 03:05:00;;;;;;;6.00;5.27;;;-0.40;99.90;;;;;;5010378;28;20239;-73
2022/04/11 03:07:27;;;;;;;5.67;5.17;;;-0.40;99.90;;;;;;5006071;28;20243;-73
2022/04/11 03:09:54;;;;;;;6.20;5.60;;;-0.40;99.90;;;;;;5009426;28;20184;-73
2022/04/11 03:12:20;;;;;;;6.27;5.67;;;-0.40;99.90;;;;;;5011321;28;20209;-72
2022/04/11 03:14:48;;;;;;;7.20;5.30;;;-0.50;99.90;;;;;;5012027;28;20179;-72
2022/04/11 03:17:14;;;;;;;7.63;5.37;;;-0.50;99.90;;;;;;5008722;28;20197;-72
2022/04/11 03:19:40;;;;;;;6.77;5.90;;;-0.50;99.90;;;;;;5011057;28;20183;-72
2022/04/11 03:22:06;;;;;;;6.37;5.13;;;-0.40;99.90;;;;;;5010330;28;20193;-72
2022/04/11 03:24:32;;;;;;;5.87;5.00;;;-0.30;99.90;;;;;;5012963;28;20546;-72
2022/04/11 03:26:57;;;;;;;5.90;5.30;;;-0.30;99.90;;;;;;5010515;28;20726;-73
2022/04/11 03:29:23;;;;;;;5.97;5.00;;;-0.40;99.90;;;;;;5010269;28;20327;-72
2022/04/11 03:31:48;;;;;;;6.37;5.20;;;-0.40;99.90;;;;;;5011034;28;20216;-72
2022/04/11 03:34:14;;;;;;;7.10;5.30;;;-0.40;99.90;;;;;;5010245;28;20192;-72
2022/04/11 03:36:40;;;;;;;6.10;5.50;;;-0.40;99.90;;;;;;5011236;28;20208;-72
2022/04/11 03:39:06;;;;;;;5.63;5.10;;;-0.30;99.90;;;;;;5025837;28;20185;-72
2022/04/11 03:41:31;;;;;;;8.87;5.83;;;-0.40;99.90;;;;;;5009398;28;20284;-72
2022/04/11 03:43:57;;;;;;;5.00;4.60;;;-0.40;99.90;;;;;;5008232;28;20249;-72
2022/04/11 03:46:22;;;;;;;5.20;4.80;;;-0.40;99.90;;;;;;5010994;28;20205;-73
2022/04/11 03:48:48;;;;;;;6.90;4.43;;;-0.40;99.90;;;;;;5012905;28;20185;-73
2022/04/11 03:51:14;;;;;;;5.70;4.67;;;-0.50;99.90;;;;;;5007261;28;20280;-73
2022/04/11 03:53:41;;;;;;;5.20;4.70;;;-0.40;99.90;;;;;;5000856;28;20181;-73
2022/04/11 03:56:06;;;;;;;5.20;4.67;;;-0.40;99.90;;;;;;5010289;28;20193;-73
2022/04/11 03:58:32;;;;;;;6.40;4.50;;;-0.40;99.90;;;;;;5010777;28;20189;-73
2022/04/11 04:00:58;;;;;;;6.03;4.97;;;-0.50;99.90;;;;;;5009040;28;20272;-72
2022/04/11 04:03:23;;;;;;;5.03;4.43;;;-0.50;99.90;;;;;;5007228;28;20190;-72
2022/04/11 04:05:49;;;;;;;5.43;4.93;;;-0.50;99.90;;;;;;5007188;28;20185;-72
2022/04/11 04:08:17;;;;;;;5.37;4.87;;;-0.50;99.90;;;;;;5011182;28;20266;-73
2022/04/11 04:10:44;;;;;;;5.00;4.57;;;-0.60;99.90;;;;;;5008439;28;20201;-73
2022/04/11 04:13:09;;;;;;;5.77;4.43;;;-0.60;99.90;;;;;;5007440;28;20198;-72
2022/04/11 04:15:36;;;;;;;5.90;4.67;;;-0.70;99.90;;;;;;5010748;28;20230;-72
2022/04/11 04:18:01;;;;;;;5.57;5.10;;;-0.70;99.90;;;;;;5006972;28;20205;-72
2022/04/11 04:20:27;;;;;;;5.60;5.10;;;-0.60;99.90;;;;;;5007675;28;20184;-72
2022/04/11 04:22:53;;;;;;;6.30;4.63;;;-0.70;99.90;;;;;;5008702;28;20181;-72
2022/04/11 04:25:19;;;;;;;6.37;5.20;;;-0.60;99.90;;;;;;5002965;28;20219;-72
2022/04/11 04:27:44;;;;;;;5.43;4.93;;;-0.60;99.90;;;;;;5011091;28;20233;-73
2022/04/11 04:30:10;;;;;;;6.40;5.00;;;-0.50;99.90;;;;;;5009161;28;20239;-72
2022/04/11 04:32:36;;;;;;;6.60;4.43;;;-0.50;99.90;;;;;;5007994;28;20680;-72
2022/04/11 04:35:02;;;;;;;7.20;5.67;;;-0.50;99.90;;;;;;5001191;28;20236;-72
2022/04/11 04:37:27;;;;;;;6.30;5.53;;;-0.40;99.90;;;;;;5001422;28;20286;-72
2022/04/11 04:39:53;;;;;;;6.33;5.00;;;-0.40;99.90;;;;;;5001591;28;20182;-72
2022/04/11 04:42:23;;;;;;;7.07;6.13;;;-0.40;99.90;;;;;;5002391;28;20194;-73
2022/04/11 04:44:49;;;;;;;7.37;5.63;;;-0.30;99.90;;;;;;5001473;28;20193;-72
2022/04/11 04:47:18;;;;;;;8.83;5.83;;;-0.20;99.90;;;;;;5000791;28;20231;-72
2022/04/11 04:49:45;;;;;;;6.43;5.47;;;-0.20;99.90;;;;;;5001034;28;20553;-72
2022/04/11 04:52:12;;;;;;;6.47;5.77;;;-0.10;99.90;;;;;;4999630;28;20241;-72
2022/04/11 04:54:37;;;;;;;7.37;5.47;;;0.00;99.90;;;;;;5001472;28;20186;-72
2022/04/11 04:57:04;;;;;;;7.60;5.50;;;0.00;99.90;;;;;;5004363;28;20206;-75
2022/04/11 04:59:30;;;;;;;6.33;5.20;;;0.00;99.90;;;;;;5007777;28;20536;-76
2022/04/11 05:01:56;;;;;;;6.20;4.90;;;0.10;99.90;;;;;;5010917;28;20197;-75
2022/04/11 05:04:21;;;;;;;6.40;5.57;;;0.20;99.90;;;;;;5017337;28;20264;-76
2022/04/11 05:06:47;;;;;;;5.73;5.07;;;0.30;99.90;;;;;;5010173;28;20204;-76
2022/04/11 05:09:12;;;;;;;5.60;5.20;;;0.30;99.90;;;;;;5027890;28;20652;-76
2022/04/11 05:11:38;;;;;;;5.33;4.83;;;0.40;99.90;;;;;;5010935;28;20214;-76
2022/04/11 05:14:04;;;;;;;6.07;4.93;;;0.60;99.90;;;;;;5014405;28;20653;-76
2022/04/11 05:16:30;;;;;;;5.00;4.30;;;0.70;99.90;;;;;;5008701;28;20604;-77
2022/04/11 05:18:56;;;;;;;5.53;5.03;;;0.80;99.90;;;;;;5008729;28;20185;-77
2022/04/11 05:21:22;;;;;;;6.27;5.67;;;0.90;99.90;;;;;;5012573;28;20181;-77
2022/04/11 05:23:47;;;;;;;5.10;4.60;;;0.90;99.90;;;;;;5010613;28;20181;-77
2022/04/11 05:26:13;;;;;;;4.83;4.30;;;1.10;99.90;;;;;;5012890;28;20251;-76
2022/04/11 05:28:38;;;;;;;6.73;4.57;;;1.20;99.90;;;;;;5010997;28;20201;-76
2022/04/11 05:31:04;;;;;;;7.37;4.33;;;1.40;99.90;;;;;;5010657;28;20208;-76
2022/04/11 05:33:29;;;;;;;4.93;4.40;;;1.50;99.90;;;;;;5010683;28;20225;-74
2022/04/11 05:35:56;;;;;;;5.10;4.40;;;1.70;99.90;;;;;;5000659;28;20217;-75
2022/04/11 05:38:22;;;;;;;5.20;4.27;;;1.80;99.90;;;;;;5001719;28;20205;-75
2022/04/11 05:40:48;;;;;;;5.87;4.53;;;1.80;99.90;;;;;;5011913;28;20189;-75
2022/04/11 05:43:14;;;;;;;4.60;4.07;;;2.00;99.90;;;;;;5011071;28;20243;-74
2022/04/11 05:45:41;;;;;;;5.10;4.60;;;2.10;99.90;;;;;;5015632;28;20660;-72
2022/04/11 05:48:07;;;;;;;4.43;3.40;;;2.20;99.90;;;;;;5014105;28;20288;-73
2022/04/11 05:50:32;;;;;;;7.83;5.60;;;2.30;99.90;;;;;;5014022;28;20272;-73
2022/04/11 05:52:58;;;;;;;4.50;4.20;;;2.30;99.90;;;;;;5007909;28;20217;-72
2022/04/11 05:55:24;;;;;;;4.57;4.10;;;2.40;99.90;;;;;;5013567;28;20177;-73
2022/04/11 05:57:50;;;;;;;5.13;4.63;;;2.40;99.90;;;;;;5006602;28;20294;-71
2022/04/11 06:00:16;;;;;;;6.07;4.20;;;2.50;99.90;;;;;;5008456;28;20766;-72
2022/04/11 06:02:42;;;;;;;4.73;4.20;;;2.40;99.90;;;;;;5006657;28;20656;-71
2022/04/11 06:05:09;;;;;;;4.30;3.90;;;2.50;99.90;;;;;;5006356;28;20268;-72
2022/04/11 06:07:35;;;;;;;4.67;4.27;;;2.50;99.90;;;;;;5006302;28;20205;-71
2022/04/11 06:10:02;;;;;;;4.83;4.10;;;2.60;99.90;;;;;;5002580;28;20394;-72
2022/04/11 06:12:28;;;;;;;4.60;4.20;;;2.70;99.90;;;;;;4999333;28;20288;-72
2022/04/11 06:14:53;;;;;;;4.97;4.57;;;2.80;99.90;;;;;;5008091;28;20637;-70
2022/04/11 06:17:25;;;;;;;4.93;4.53;;;2.80;99.90;;;;;;5010538;28;20299;-69
2022/04/11 06:19:52;;;;;;;7.00;4.10;;;2.90;99.90;;;;;;5003251;28;20185;-69
2022/04/11 06:22:18;;;;;;;4.83;4.47;;;3.00;99.90;;;;;;5011940;28;20226;-70
2022/04/11 06:24:45;;;;;;;7.07;4.93;;;3.10;99.90;;;;;;5012823;28;20181;-69
2022/04/11 06:27:10;;;;;;;5.73;4.93;;;3.30;99.90;;;;;;5011209;28;20315;-72
2022/04/11 06:29:36;;;;;;;6.13;5.53;;;3.40;99.90;;;;;;5006456;28;20693;-75
2022/04/11 06:32:04;;;;;;;6.30;5.70;;;3.40;99.90;;;;;;5006267;28;20217;-76
2022/04/11 06:34:31;;;;;;;8.03;6.10;;;3.50;99.90;;;;;;4998652;28;20831;-73
2022/04/11 06:36:57;;;;;;;6.57;5.87;;;3.50;99.90;;;;;;4997754;28;20237;-73
2022/04/11 06:39:22;;;;;;;7.27;6.60;;;3.60;99.90;;;;;;5007692;28;20219;-74
2022/04/11 06:41:48;;;;;;;9.07;6.17;;;3.50;99.90;;;;;;5013265;28;20181;-73
2022/04/11 06:44:13;;;;;;;7.20;6.50;;;3.50;99.90;;;;;;5010333;28;20189;-73
2022/04/11 06:46:39;;;;;;;6.33;5.80;;;3.60;99.90;;;;;;5007267;28;20208;-70
2022/04/11 06:49:05;;;;;;;6.10;5.50;;;3.60;99.90;;;;;;5002582;28;20196;-71
2022/04/11 06:51:31;;;;;;;8.57;5.40;;;3.70;99.90;;;;;;5011708;28;20243;-69
2022/04/11 06:53:56;;;;;;;6.37;5.87;;;3.80;99.90;;;;;;5005713;28;20232;-74
2022/04/11 06:56:22;;;;;;;6.57;5.87;;;4.00;99.90;;;;;;5011951;28;20233;-74
2022/04/11 06:58:48;;;;;;;6.20;5.60;;;4.10;99.90;;;;;;5005305;28;20231;-71
2022/04/11 07:01:13;;;;;;;6.23;5.70;;;4.40;99.90;;;;;;5013455;28;20213;-70
2022/04/11 07:03:39;;;;;;;6.97;6.30;;;4.50;99.90;;;;;;5008350;28;20250;-75
2022/04/11 07:06:05;;;;;;;6.10;5.60;;;4.70;99.90;;;;;;5006326;28;20177;-75
2022/04/11 07:08:30;;;;;;;8.07;6.47;;;4.80;99.90;;;;;;5005515;28;20205;-76
2022/04/11 07:10:59;;;;;;;6.53;5.93;;;5.00;99.90;;;;;;5010709;28;20642;-77
2022/04/11 07:13:25;;;;;;;8.00;6.27;;;5.20;99.90;;;;;;4999316;28;20272;-77
2022/04/11 07:15:51;;;;;;;9.47;7.77;;;5.40;99.90;;;;;;5006891;28;20189;-75
2022/04/11 07:18:16;;;;;;;7.93;7.33;;;5.50;99.90;;;;;;5029700;28;20683;-77
2022/04/11 07:20:42;;;;;;;7.27;6.67;;;5.70;99.90;;;;;;5005913;28;20721;-74
2022/04/11 07:23:08;;;;;;;8.53;6.90;;;5.90;99.90;;;;;;5009107;28;20541;-77
2022/04/11 07:25:33;;;;;;;7.13;6.43;;;6.00;99.90;;;;;;5005641;28;20181;-75
2022/04/11 07:27:59;;;;;;;8.07;6.77;;;6.20;99.90;;;;;;5001475;28;20206;-75
2022/04/11 07:30:24;;;;;;;12.10;8.87;;;6.30;99.90;;;;;;5007231;28;20200;-78
2022/04/11 07:32:50;;;;;;;8.83;8.03;;;6.40;99.90;;;;;;5008698;28;20680;-80
2022/04/11 07:35:16;;;;;;;9.97;8.10;;;6.60;99.90;;;;;;5012331;28;20661;-76
2022/04/11 07:37:41;;;;;;;11.73;7.60;;;6.80;99.90;;;;;;5010104;28;20212;-76
2022/04/11 07:40:08;;;;;;;8.52;7.63;;;7.00;99.90;;;;;;5001942;28;20221;-75
2022/04/11 07:42:33;;;;;;;8.38;7.65;;;7.20;99.90;;;;;;5008657;28;20685;-76
2022/04/11 07:44:59;;;;;;;8.45;7.47;;;7.30;99.90;;;;;;5007101;28;20227;-75
2022/04/11 07:47:25;;;;;;;8.57;7.78;;;7.40;99.90;;;;;;5002859;28;20709;-76
2022/04/11 07:49:50;;;;;;;8.35;7.65;;;7.20;99.90;;;;;;5005271;28;20573;-76
2022/04/11 07:52:16;;;;;;;8.73;6.95;;;7.10;99.90;;;;;;5010112;28;20710;-75
2022/04/11 07:54:42;;;;;;;7.63;6.95;;;7.40;99.90;;;;;;5029128;28;20188;-76
2022/04/11 07:57:09;;;;;;;9.07;8.18;;;7.60;99.90;;;;;;5006609;28;20202;-75
2022/04/11 07:59:35;;;;;;;8.35;7.60;;;7.40;99.90;;;;;;5012711;28;20177;-76
2022/04/11 08:02:01;;;;;;;10.40;7.75;;;7.60;99.90;;;;;;5009954;28;20193;-74
2022/04/11 08:04:26;;;;;;;9.13;8.20;;;7.40;99.90;;;;;;5013021;28;20177;-74
2022/04/11 08:06:52;;;;;;;7.85;7.15;;;7.30;99.90;;;;;;5009591;28;20212;-73
2022/04/11 08:09:18;;;;;;;9.13;7.68;;;7.40;99.90;;;;;;5013208;28;20687;-73
2022/04/11 08:11:44;;;;;;;8.48;7.03;;;7.50;99.90;;;;;;5007452;28;20203;-78
2022/04/11 08:14:10;;;;;;;7.50;6.88;;;7.60;99.90;;;;;;5031132;28;20174;-74
2022/04/11 08:16:35;;;;;;;8.00;7.28;;;7.80;99.90;;;;;;5009531;28;20288;-73
2022/04/11 08:19:01;;;;;;;8.10;7.30;;;7.80;99.90;;;;;;5012309;28;20178;-77
2022/04/11 08:21:26;;;;;;;7.60;6.80;;;7.90;99.90;;;;;;5020383;28;20209;-78
2022/04/11 08:23:52;;;;;;;7.75;7.00;;;7.90;99.90;;;;;;5013332;28;20185;-75
2022/04/11 08:26:18;;;;;;;7.68;6.93;;;7.90;99.90;;;;;;5000730;28;20572;-74
2022/04/11 08:28:43;;;;;;;8.80;7.32;;;7.90;99.90;;;;;;5013619;28;20238;-75
2022/04/11 08:31:09;;;;;;;8.38;7.15;;;7.90;99.90;;;;;;5015142;28;20524;-74
2022/04/11 08:33:35;;;;;;;6.85;6.30;;;7.90;99.90;;;;;;5011928;28;20182;-71
2022/04/11 08:36:00;;;;;;;7.88;7.07;;;8.00;99.90;;;;;;5013204;28;20185;-70
2022/04/11 08:38:26;;;;;;;8.00;7.38;;;8.10;99.90;;;;;;5012256;28;20229;-70
2022/04/11 08:40:54;;;;;;;8.18;6.65;;;8.10;99.90;;;;;;5011517;28;20223;-70
2022/04/11 08:43:25;;;;;;;7.68;6.90;;;8.10;99.90;;;;;;5012406;28;20661;-70
2022/04/11 08:45:54;;;;;;;7.20;6.65;;;8.10;99.90;;;;;;5010586;28;20186;-70
2022/04/11 08:48:23;;;;;;;9.35;7.05;;;8.30;99.90;;;;;;5015416;28;20572;-74
2022/04/11 08:50:50;;;;;;;7.80;6.18;;;8.30;99.90;;;;;;5002240;28;20295;-71
2022/04/11 08:53:20;;;;;;;6.60;5.82;;;8.40;99.90;;;;;;5011638;28;20182;-71
2022/04/11 08:55:47;;;;;;;5.85;5.35;;;8.60;99.90;;;;;;5010452;28;20189;-70
2022/04/11 08:58:13;;;;;;;7.25;6.55;;;8.60;99.90;;;;;;5012580;28;20224;-70
2022/04/11 09:00:38;;;;;;;5.95;5.45;;;8.70;99.90;;;;;;5008652;28;20235;-70
2022/04/11 09:03:05;;;;;;;6.43;5.90;;;8.90;99.90;;;;;;5011798;28;20191;-70
2022/04/11 09:05:32;;;;;;;4.93;4.55;;;9.20;99.90;;;;;;5010187;28;20182;-70
2022/04/11 09:07:59;;;;;;;5.93;4.97;;;9.60;99.90;;;;;;5010713;28;20320;-68
2022/04/11 09:10:32;;;;;;;5.30;4.78;;;11.20;99.90;;;;;;5006308;28;20264;-70
2022/04/11 09:12:59;;;;;;;5.13;4.72;;;13.50;99.90;;;;;;5009798;28;20185;-71
2022/04/11 09:15:27;;;;;;;4.75;4.32;;;16.30;98.20;;;;;;5010159;28;20535;-73
2022/04/11 09:17:54;;;;;;;4.97;4.47;;;17.90;84.60;;;;;;5011461;28;20197;-73
2022/04/11 09:20:25;;;;;;;4.90;4.40;;;19.80;72.10;;;;;;5013059;28;20192;-73
2022/04/11 09:22:51;;;;;;;4.20;3.80;;;21.20;58.10;;;;;;5008216;28;20185;-73
2022/04/11 09:25:20;;;;;;;4.20;3.85;;;22.10;57.60;;;;;;5003314;28;20208;-73
2022/04/11 09:27:47;;;;;;;4.15;3.85;;;23.40;53.20;;;;;;5008777;28;20214;-78
2022/04/11 09:30:31;;;;;;;4.45;4.07;;;23.90;51.00;;;;;;5005862;28;20178;-77
2022/04/11 09:32:56;;;;;;;4.30;4.00;;;24.40;49.30;;;;;;5004988;28;20604;-73
2022/04/11 09:35:29;;;;;;;4.30;4.00;;;25.20;47.40;;;;;;5013176;28;20181;-74
2022/04/11 09:38:07;;;;;;;4.70;4.30;;;26.10;46.80;;;;;;5010640;28;20565;-73
2022/04/11 09:40:36;;;;;;;3.85;3.45;;;26.00;44.80;;;;;;5010653;28;20196;-80
2022/04/11 09:43:02;;;;;;;4.68;3.80;;;26.30;44.10;;;;;;5011955;28;20185;-74
2022/04/11 09:45:28;;;;;;;3.28;3.08;;;26.30;42.90;;;;;;5011098;28;20181;-76
2022/04/11 09:48:04;;;;;;;5.35;3.22;;;26.40;42.40;;;;;;5010039;28;20301;-75
2022/04/11 09:50:33;;;;;;;4.30;4.00;;;26.70;41.60;;;;;;5011802;28;20636;-77
2022/04/11 09:53:15;;;;;;;5.50;3.17;;;27.40;40.20;;;;;;5007636;28;20206;-78
2022/04/11 09:55:42;;;;;;;3.90;3.60;;;28.00;40.70;;;;;;5012548;28;20208;-78
2022/04/11 09:58:09;;;;;;;3.25;2.95;;;28.30;39.40;;;;;;5013626;28;20197;-78
2022/04/11 10:00:37;;;;;;;4.28;3.80;;;28.70;38.80;;;;;;5010255;28;20308;-78
2022/04/11 10:03:05;;;;;;;4.07;3.67;;;28.60;38.60;;;;;;5013581;28;20263;-78
2022/04/11 10:05:35;;;;;;;3.55;3.25;;;29.00;38.00;;;;;;5011890;28;20330;-77
2022/04/11 10:08:04;;;;;;;3.30;2.63;;;28.50;37.30;;;;;;5007805;28;20208;-77
2022/04/11 10:10:31;;;;;;;3.80;3.35;;;28.70;35.80;;;;;;5011090;28;20189;-77
2022/04/11 10:12:57;;;;;;;4.00;3.60;;;29.40;36.00;;;;;;5004658;28;20217;-77
2022/04/11 10:15:23;;;;;;;3.70;3.40;;;28.50;36.80;;;;;;5006231;28;20189;-77
2022/04/11 10:17:53;;;;;;;2.72;2.63;;;27.80;36.60;;;;;;5006981;28;20205;-77
2022/04/11 10:20:27;;;;;;;5.05;3.50;;;27.70;35.80;;;;;;5002426;28;20184;-76
2022/04/11 10:23:03;;;;;;;3.67;3.38;;;27.70;37.10;;;;;;5001479;28;20269;-73
2022/04/11 10:25:30;;;;;;;4.50;3.85;;;28.50;37.60;;;;;;5002175;28;20675;-74
2022/04/11 10:28:15;;;;;;;3.08;2.88;;;28.40;36.40;;;;;;5002547;28;20303;-73
2022/04/11 10:30:40;;;;;;;3.50;3.20;;;28.90;35.90;;;;;;5012157;28;20181;-73
2022/04/11 10:33:06;;;;;;;3.53;3.20;;;30.00;35.50;;;;;;5008866;28;20221;-74
2022/04/11 10:35:59;;;;;;;3.47;3.17;;;30.50;34.70;;;;;;5008149;28;20562;-73
2022/04/11 10:38:25;;;;;;;3.53;2.90;;;30.50;34.40;;;;;;5004269;28;20267;-74
2022/04/11 10:40:51;;;;;;;3.72;3.45;;;31.00;34.80;;;;;;5001268;28;20724;-77
2022/04/11 10:43:17;;;;;;;4.30;3.35;;;31.10;34.60;;;;;;5004846;28;20173;-74
2022/04/11 10:45:55;;;;;;;3.28;3.08;;;31.10;33.20;;;;;;5010148;28;20288;-78
2022/04/11 10:48:24;;;;;;;3.58;3.08;;;29.90;34.40;;;;;;5006745;28;20555;-75
2022/04/11 10:50:53;;;;;;;3.10;2.90;;;29.20;34.50;;;;;;5011675;28;20173;-75
2022/04/11 10:53:25;;;;;;;3.55;3.25;;;30.30;34.80;;;;;;5010420;28;20177;-76
2022/04/11 10:55:54;;;;;;;3.00;2.80;;;31.10;33.70;;;;;;5008347;28;20188;-79
2022/04/11 10:58:22;;;;;;;3.08;2.92;;;32.20;32.00;;;;;;5009915;28;20452;-77
2022/04/11 11:00:48;;;;;;;3.15;2.95;;;29.80;33.10;;;;;;5012936;28;20266;-78
2022/04/11 11:03:14;;;;;;;3.75;3.22;;;30.20;33.80;;;;;;5010846;28;20531;-78
2022/04/11 11:05:44;;;;;;;3.08;2.80;;;31.10;33.50;;;;;;5007630;28;20768;-78
2022/04/11 11:08:09;;;;;;;2.72;2.50;;;31.20;32.90;;;;;;5011020;28;20189;-78
2022/04/11 11:11:18;;;;;;;2.60;2.40;;;31.40;31.80;;;;;;5009750;28;20203;-77
2022/04/11 11:13:44;;;;;;;2.85;2.65;;;31.80;31.20;;;;;;5017730;28;20193;-77
2022/04/11 11:16:12;;;;;;;2.47;2.33;;;32.40;31.50;;;;;;5009664;28;20231;-77
2022/04/11 11:18:50;;;;;;;2.40;2.30;;;32.80;29.70;;;;;;5009666;28;20673;-77
2022/04/11 11:21:28;;;;;;;3.05;2.80;;;33.50;29.80;;;;;;5008436;28;20537;-77
2022/04/11 11:26:45;;;;;;;2.92;2.78;;;32.80;29.60;;;;;;5011172;28;20692;-76
2022/04/11 11:29:16;;;;;;;2.83;2.63;;;31.70;29.90;;;;;;5009604;28;20180;-77
2022/04/11 11:31:41;;;;;;;3.20;3.00;;;31.40;31.50;;;;;;5010674;28;20204;-76
2022/04/11 11:34:11;;;;;;;3.90;3.60;;;31.30;30.50;;;;;;5010826;28;20570;-76
2022/04/11 11:36:39;;;;;;;3.70;3.50;;;30.70;30.60;;;;;;5007913;28;20209;-77
2022/04/11 11:39:18;;;;;;;3.03;2.90;;;30.40;33.10;;;;;;5009183;28;20192;-77
2022/04/11 11:41:45;;;;;;;3.53;3.20;;;31.10;31.70;;;;;;5016927;28;20335;-77
2022/04/11 11:44:12;;;;;;;4.28;3.55;;;31.10;32.10;;;;;;5015162;28;20188;-76
2022/04/11 11:46:53;;;;;;;2.80;2.60;;;31.50;31.70;;;;;;5012525;28;20208;-77
2022/04/11 11:49:20;;;;;;;3.38;3.08;;;32.30;32.00;;;;;;5011394;28;20213;-77
2022/04/11 11:51:46;;;;;;;3.33;3.13;;;32.70;31.00;;;;;;5018598;28;20338;-77
2022/04/11 11:54:12;;;;;;;5.47;3.75;;;32.40;29.80;;;;;;5016256;28;20593;-78
2022/04/11 11:56:46;;;;;;;3.60;3.30;;;32.30;30.90;;;;;;5011865;28;20196;-74
2022/04/11 11:59:14;;;;;;;4.35;3.97;;;32.00;30.90;;;;;;5017057;28;20248;-76
2022/04/11 12:01:40;;;;;;;4.25;3.92;;;31.40;31.60;;;;;;5012620;28;20194;-76
2022/04/11 12:04:19;;;;;;;4.28;3.88;;;31.70;31.40;;;;;;5011965;28;20181;-76
2022/04/11 12:06:51;;;;;;;4.38;3.55;;;31.40;31.00;;;;;;5012147;28;20686;-76
2022/04/11 12:09:17;;;;;;;4.28;3.88;;;31.00;31.30;;;;;;5016622;28;20173;-74
2022/04/11 12:11:43;;;;;;;4.82;4.53;;;30.40;32.00;;;;;;5011265;28;20207;-75
2022/04/11 12:14:09;;;;;;;4.18;3.88;;;29.30;33.30;;;;;;5014144;28;20189;-76
2022/04/11 12:16:55;;;;;;;4.70;4.30;;;28.50;34.70;;;;;;5012073;28;20572;-75
2022/04/11 12:19:36;;;;;;;3.95;3.65;;;29.00;35.10;;;;;;5016311;28;20181;-76
2022/04/11 12:22:12;;;;;;;5.93;4.35;;;29.60;32.20;;;;;;5015129;28;20231;-76
2022/04/11 12:24:38;;;;;;;4.32;4.03;;;29.70;34.10;;;;;;5012184;28;20192;-75
2022/04/11 12:27:06;;;;;;;4.10;3.80;;;29.70;32.60;;;;;;5015983;28;20212;-75
2022/04/11 12:29:41;;;;;;;3.40;3.20;;;30.00;33.40;;;;;;5007577;28;20189;-75
2022/04/11 12:32:15;;;;;;;4.07;3.78;;;30.20;33.30;;;;;;5013015;28;20200;-76
2022/04/11 12:34:43;;;;;;;4.05;3.75;;;29.70;32.60;;;;;;5012393;28;20266;-75
2022/04/11 12:37:11;;;;;;;3.97;3.67;;;29.90;33.40;;;;;;5016047;28;20197;-75
2022/04/11 12:39:52;;;;;;;3.42;3.22;;;30.00;33.40;;;;;;5011280;28;20169;-75
2022/04/11 12:42:22;;;;;;;4.10;3.83;;;29.50;34.30;;;;;;5015467;28;20180;-76
2022/04/11 12:44:48;;;;;;;4.43;4.13;;;28.80;33.10;;;;;;5007186;28;20621;-74
2022/04/11 12:47:14;;;;;;;3.83;3.58;;;27.60;33.90;;;;;;5009879;28;20201;-73
2022/04/11 12:49:49;;;;;;;4.25;4.00;;;26.90;35.60;;;;;;5011284;28;20265;-74
2022/04/11 12:52:20;;;;;;;4.28;3.97;;;25.30;37.00;;;;;;5011577;28;20258;-76
2022/04/11 12:54:49;;;;;;;3.47;3.28;;;25.40;37.30;;;;;;5002823;28;20241;-76
2022/04/11 12:57:26;;;;;;;3.47;3.20;;;26.50;36.50;;;;;;5005880;28;20573;-73